In Rescue
 
Open Full Screen Window  High Contrast Mode
Wind Gusting 00 knots
03
July 23, 2019 1:30 AM EDT
Weather Information
Wind Direction
  320 °
Wind Speed
  03 kt (3 mph)
Wind Gust
  00 kt (0 mph)
Altimeter
30.05 in
Visibility
10 SM
Temperature
16° C
61° F
Dewpoint
12° C
54° F
Humidity
77%
1hr Rain Fall
00.00 in.
24hr Rain Fall
00.00 in.
Sky Condition
Scattered @ 12,000 ft
VFR

METAR KJYM 230530Z AUTO 32003KT 10SM SCT120 16/12 A3005 RMK AO2 T01570122

FAA Disclaimer: The data displayed is for advisory purposes only and is not to be used for flight planning or operations.